Time,TemperatureF,DewpointF,PressureIn,WindDirection,WindDirectionDegrees,WindSpeedMPH,WindSpeedGustMPH,Humidity,HourlyPrecipIn,Conditions,Clouds,dailyrainin,SolarRadiationWatts/m^2,SoftwareType,DateUTC
2013-10-27 00:01:00,51.0,24.0,-100.00,WNW,294,7.0,10.0,34,0.00,,,0.00,0.000000,,2013-10-27 06:01:00,
2013-10-27 00:13:00,51.0,24.0,-100.00,WNW,294,7.0,10.0,34,0.00,,,0.00,0.000000,,2013-10-27 06:13:00,
2013-10-27 00:21:00,51.0,24.0,-100.00,WNW,294,7.0,10.0,34,0.00,,,0.00,0.000000,,2013-10-27 06:21:00,
2013-10-27 00:30:00,52.0,23.0,-100.00,NW,309,9.0,13.0,32,0.00,,,0.00,0.000000,,2013-10-27 06:30:00,
2013-10-27 00:53:00,52.0,23.0,-100.00,NW,309,9.0,13.0,32,0.00,,,0.00,0.000000,,2013-10-27 06:53:00,
2013-10-27 01:02:00,52.0,23.0,-100.00,NW,309,9.0,13.0,32,0.00,,,0.00,0.000000,,2013-10-27 07:02:00,
2013-10-27 01:11:00,52.0,23.0,-100.00,NW,309,9.0,13.0,32,0.00,,,0.00,0.000000,,2013-10-27 07:11:00,
2013-10-27 01:21:00,52.0,23.0,-100.00,NW,309,9.0,13.0,32,0.00,,,0.00,0.000000,,2013-10-27 07:21:00,
2013-10-27 01:30:00,51.0,24.0,-100.00,NW,308,9.0,11.0,34,0.00,,,0.00,0.000000,,2013-10-27 07:30:00,
2013-10-27 01:52:00,51.0,24.0,-100.00,NW,308,9.0,11.0,34,0.00,,,0.00,0.000000,,2013-10-27 07:52:00,
2013-10-27 02:03:00,51.0,24.0,-100.00,NW,308,9.0,11.0,34,0.00,,,0.00,0.000000,,2013-10-27 08:03:00,
2013-10-27 02:11:00,51.0,24.0,-100.00,NW,308,9.0,11.0,34,0.00,,,0.00,0.000000,,2013-10-27 08:11:00,
2013-10-27 02:22:00,51.0,24.0,-100.00,NW,308,9.0,11.0,34,0.00,,,0.00,0.000000,,2013-10-27 08:22:00,
2013-10-27 02:30:00,50.0,21.0,-100.00,WNW,295,4.0,12.0,32,0.00,,,0.00,0.000000,,2013-10-27 08:30:00,
2013-10-27 02:52:00,50.0,21.0,-100.00,WNW,295,4.0,12.0,32,0.00,,,0.00,0.000000,,2013-10-27 08:52:00,
2013-10-27 03:02:00,50.0,21.0,-100.00,WNW,295,4.0,12.0,32,0.00,,,0.00,0.000000,,2013-10-27 09:02:00,
2013-10-27 03:12:00,50.0,21.0,-100.00,WNW,295,4.0,12.0,32,0.00,,,0.00,0.000000,,2013-10-27 09:12:00,
2013-10-27 03:21:00,50.0,21.0,-100.00,WNW,295,4.0,12.0,32,0.00,,,0.00,0.000000,,2013-10-27 09:21:00,
2013-10-27 03:30:00,50.0,23.0,-100.00,WNW,288,7.0,11.0,35,0.00,,,-99.99,0.000000,,2013-10-27 09:30:00,
2013-10-27 03:54:00,50.0,23.0,-100.00,WNW,288,7.0,11.0,35,0.00,,,-99.99,0.000000,,2013-10-27 09:54:00,
2013-10-27 04:03:00,50.0,23.0,-100.00,WNW,288,7.0,11.0,35,0.00,,,-99.99,0.000000,,2013-10-27 10:03:00,
2013-10-27 04:12:00,50.0,23.0,-100.00,WNW,288,7.0,11.0,35,0.00,,,-99.99,0.000000,,2013-10-27 10:12:00,
2013-10-27 04:23:00,50.0,23.0,-100.00,WNW,288,7.0,11.0,35,0.00,,,-99.99,0.000000,,2013-10-27 10:23:00,
2013-10-27 04:53:00,52.0,23.0,-100.00,West,280,6.0,10.0,32,0.00,,,0.00,0.000000,,2013-10-27 10:53:00,
2013-10-27 05:02:00,52.0,23.0,-100.00,West,280,6.0,10.0,32,0.00,,,0.00,0.000000,,2013-10-27 11:02:00,
2013-10-27 05:12:00,52.0,23.0,-100.00,West,280,6.0,10.0,32,0.00,,,0.00,0.000000,,2013-10-27 11:12:00,
2013-10-27 05:30:00,47.0,23.0,-100.00,NW,307,6.0,11.0,39,0.00,,,0.00,0.000000,,2013-10-27 11:30:00,
2013-10-27 05:52:00,47.0,23.0,-100.00,NW,307,6.0,11.0,39,0.00,,,0.00,0.000000,,2013-10-27 11:52:00,
2013-10-27 06:01:00,47.0,23.0,-100.00,NW,307,6.0,11.0,39,0.00,,,0.00,0.000000,,2013-10-27 12:01:00,
2013-10-27 06:12:00,47.0,23.0,-100.00,NW,307,6.0,11.0,39,0.00,,,0.00,0.000000,,2013-10-27 12:12:00,
2013-10-27 06:22:00,47.0,23.0,-100.00,NW,307,6.0,11.0,39,0.00,,,0.00,0.000000,,2013-10-27 12:22:00,
2013-10-27 06:52:00,49.0,23.0,-100.00,NW,304,10.0,14.0,36,0.00,,,0.00,0.000000,,2013-10-27 12:52:00,
2013-10-27 07:02:00,49.0,23.0,-100.00,NW,304,10.0,14.0,36,0.00,,,0.00,0.000000,,2013-10-27 13:02:00,
2013-10-27 07:12:00,49.0,23.0,-100.00,NW,304,10.0,14.0,36,0.00,,,0.00,0.000000,,2013-10-27 13:12:00,
2013-10-27 07:30:00,45.0,23.0,-100.00,WSW,256,5.0,11.0,42,0.00,,,0.00,0.000000,,2013-10-27 13:30:00,
2013-10-27 07:52:00,45.0,23.0,-100.00,WSW,256,5.0,11.0,42,0.00,,,0.00,0.000000,,2013-10-27 13:52:00,
2013-10-27 08:02:00,45.0,23.0,-100.00,WSW,256,5.0,11.0,42,0.00,,,0.00,0.000000,,2013-10-27 14:02:00,
2013-10-27 08:11:00,45.0,23.0,-100.00,WSW,256,5.0,11.0,42,0.00,,,0.00,0.000000,,2013-10-27 14:11:00,
2013-10-27 08:21:00,45.0,23.0,-100.00,WSW,256,5.0,11.0,42,0.00,,,0.00,0.000000,,2013-10-27 14:21:00,
2013-10-27 08:30:00,39.0,21.0,-100.00,East,94,2.0,8.0,48,0.00,,,0.00,8.000000,,2013-10-27 14:30:00,
2013-10-27 08:52:00,39.0,21.0,-100.00,East,94,2.0,8.0,48,0.00,,,0.00,8.000000,,2013-10-27 14:52:00,
2013-10-27 09:01:00,39.0,21.0,-100.00,East,94,2.0,8.0,48,0.00,,,0.00,8.000000,,2013-10-27 15:01:00,
2013-10-27 09:11:00,39.0,21.0,-100.00,East,94,2.0,8.0,48,0.00,,,0.00,8.000000,,2013-10-27 15:11:00,
2013-10-27 09:21:00,39.0,21.0,-100.00,East,94,2.0,8.0,48,0.00,,,0.00,8.000000,,2013-10-27 15:21:00,
2013-10-27 10:30:00,49.0,26.0,-100.00,SSE,154,3.0,9.0,41,0.00,,,0.00,185.000000,,2013-10-27 16:30:00,
2013-10-27 10:53:00,49.0,26.0,-100.00,SSE,154,3.0,9.0,41,0.00,,,0.00,185.000000,,2013-10-27 16:53:00,
2013-10-27 11:04:00,49.0,26.0,-100.00,SSE,154,3.0,9.0,41,0.00,,,0.00,185.000000,,2013-10-27 17:04:00,
2013-10-27 11:13:00,49.0,26.0,-100.00,SSE,154,3.0,9.0,41,0.00,,,0.00,185.000000,,2013-10-27 17:13:00,
2013-10-27 11:22:00,49.0,26.0,-100.00,SSE,154,3.0,9.0,41,0.00,,,0.00,185.000000,,2013-10-27 17:22:00,
2013-10-27 11:30:00,53.0,27.0,-100.00,East,98,10.0,15.0,36,0.00,,,0.00,384.000000,,2013-10-27 17:30:00,
2013-10-27 11:53:00,53.0,27.0,-100.00,East,98,10.0,15.0,36,0.00,,,0.00,384.000000,,2013-10-27 17:53:00,
2013-10-27 12:01:00,53.0,27.0,-100.00,East,98,10.0,15.0,36,0.00,,,0.00,384.000000,,2013-10-27 18:01:00,
2013-10-27 12:12:00,53.0,27.0,-100.00,East,98,10.0,15.0,36,0.00,,,0.00,384.000000,,2013-10-27 18:12:00,
2013-10-27 12:22:00,53.0,27.0,-100.00,East,98,10.0,15.0,36,0.00,,,0.00,384.000000,,2013-10-27 18:22:00,
2013-10-27 12:30:00,56.0,26.0,-100.00,East,90,13.0,24.0,31,0.00,,,0.00,529.000000,,2013-10-27 18:30:00,
2013-10-27 13:11:00,56.0,26.0,-100.00,East,90,13.0,24.0,31,0.00,,,0.00,529.000000,,2013-10-27 19:11:00,
2013-10-27 13:22:00,56.0,26.0,-100.00,East,90,13.0,24.0,31,0.00,,,0.00,529.000000,,2013-10-27 19:22:00,
2013-10-27 13:30:00,57.0,26.0,-100.00,ENE,78,11.0,22.0,30,0.00,,,0.00,617.000000,,2013-10-27 19:30:00,
2013-10-27 13:52:00,57.0,26.0,-100.00,ENE,78,11.0,22.0,30,0.00,,,0.00,617.000000,,2013-10-27 19:52:00,
2013-10-27 14:02:00,57.0,26.0,-100.00,ENE,78,11.0,22.0,30,0.00,,,0.00,617.000000,,2013-10-27 20:02:00,
2013-10-27 14:12:00,57.0,26.0,-100.00,ENE,78,11.0,22.0,30,0.00,,,0.00,617.000000,,2013-10-27 20:12:00,
2013-10-27 14:22:00,57.0,26.0,-100.00,ENE,78,11.0,22.0,30,0.00,,,0.00,617.000000,,2013-10-27 20:22:00,
2013-10-27 14:30:00,56.0,27.0,-100.00,NE,44,5.0,18.0,32,0.00,,,0.00,410.000000,,2013-10-27 20:30:00,
2013-10-27 14:52:00,56.0,27.0,-100.00,NE,44,5.0,18.0,32,0.00,,,0.00,410.000000,,2013-10-27 20:52:00,
2013-10-27 15:02:00,56.0,27.0,-100.00,NE,44,5.0,18.0,32,0.00,,,0.00,410.000000,,2013-10-27 21:02:00,
2013-10-27 15:11:00,56.0,27.0,-100.00,NE,44,5.0,18.0,32,0.00,,,0.00,410.000000,,2013-10-27 21:11:00,
2013-10-27 15:21:00,56.0,27.0,-100.00,NE,44,5.0,18.0,32,0.00,,,0.00,410.000000,,2013-10-27 21:21:00,
2013-10-27 15:30:00,49.0,28.0,-100.00,NNW,330,8.0,20.0,44,0.00,,,0.00,195.000000,,2013-10-27 21:30:00,
2013-10-27 15:54:00,49.0,28.0,-100.00,NNW,330,8.0,20.0,44,0.00,,,0.00,195.000000,,2013-10-27 21:54:00,
2013-10-27 16:04:00,49.0,28.0,-100.00,NNW,330,8.0,20.0,44,0.00,,,0.00,195.000000,,2013-10-27 22:04:00,
2013-10-27 16:13:00,49.0,28.0,-100.00,NNW,330,8.0,20.0,44,0.00,,,0.00,195.000000,,2013-10-27 22:13:00,
2013-10-27 16:24:00,49.0,28.0,-100.00,NNW,330,8.0,20.0,44,0.00,,,0.00,195.000000,,2013-10-27 22:24:00,
2013-10-27 16:30:00,46.0,26.0,-100.00,North,349,6.0,16.0,46,0.00,,,0.00,98.000000,,2013-10-27 22:30:00,
2013-10-27 16:54:00,46.0,26.0,-100.00,North,349,6.0,16.0,46,0.00,,,0.00,98.000000,,2013-10-27 22:54:00,
2013-10-27 17:03:00,46.0,26.0,-100.00,North,349,6.0,16.0,46,0.00,,,0.00,98.000000,,2013-10-27 23:03:00,
2013-10-27 17:11:00,46.0,26.0,-100.00,North,349,6.0,16.0,46,0.00,,,0.00,98.000000,,2013-10-27 23:11:00,
2013-10-27 17:22:00,46.0,26.0,-100.00,North,349,6.0,16.0,46,0.00,,,0.00,98.000000,,2013-10-27 23:22:00,
2013-10-27 17:30:00,40.0,27.0,-100.00,NNW,327,7.0,23.0,59,0.00,,,0.00,11.000000,,2013-10-27 23:30:00,
2013-10-27 17:52:00,40.0,27.0,-100.00,NNW,327,7.0,23.0,59,0.00,,,0.00,11.000000,,2013-10-27 23:52:00,
2013-10-27 18:02:00,40.0,27.0,-100.00,NNW,327,7.0,23.0,59,0.00,,,0.00,11.000000,,2013-10-28 00:02:00,
2013-10-27 18:11:00,40.0,27.0,-100.00,NNW,327,7.0,23.0,59,0.00,,,0.00,11.000000,,2013-10-28 00:11:00,
2013-10-27 18:22:00,40.0,27.0,-100.00,NNW,327,7.0,23.0,59,0.00,,,0.00,11.000000,,2013-10-28 00:22:00,
2013-10-27 18:30:00,35.0,27.0,-100.00,ENE,72,7.0,20.0,72,0.00,,,0.00,1.000000,,2013-10-28 00:30:00,
2013-10-27 18:52:00,35.0,27.0,-100.00,ENE,72,7.0,20.0,72,0.00,,,0.00,1.000000,,2013-10-28 00:52:00,
2013-10-27 19:01:00,35.0,27.0,-100.00,ENE,72,7.0,20.0,72,0.00,,,0.00,1.000000,,2013-10-28 01:01:00,
2013-10-27 19:12:00,35.0,27.0,-100.00,ENE,72,7.0,20.0,72,0.00,,,0.00,1.000000,,2013-10-28 01:12:00,
2013-10-27 19:21:00,35.0,27.0,-100.00,ENE,72,7.0,20.0,72,0.00,,,0.00,1.000000,,2013-10-28 01:21:00,
2013-10-27 19:30:00,34.0,29.0,-100.00,ENE,65,11.0,18.0,83,0.00,,,0.00,0.000000,,2013-10-28 01:30:00,
2013-10-27 19:52:00,34.0,29.0,-100.00,ENE,65,11.0,18.0,83,0.00,,,0.00,0.000000,,2013-10-28 01:52:00,
2013-10-27 20:02:00,34.0,29.0,-100.00,ENE,65,11.0,18.0,83,0.00,,,0.00,0.000000,,2013-10-28 02:02:00,
2013-10-27 20:12:00,34.0,29.0,-100.00,ENE,65,11.0,18.0,83,0.00,,,0.00,0.000000,,2013-10-28 02:12:00,
2013-10-27 20:21:00,34.0,29.0,-100.00,ENE,65,11.0,18.0,83,0.00,,,0.00,0.000000,,2013-10-28 02:21:00,
2013-10-27 20:30:00,32.0,27.0,-100.00,ENE,78,5.0,15.0,81,0.00,,,0.00,0.000000,,2013-10-28 02:30:00,
2013-10-27 21:11:00,32.0,27.0,-100.00,ENE,78,5.0,15.0,81,0.00,,,0.00,0.000000,,2013-10-28 03:11:00,
2013-10-27 21:22:00,32.0,27.0,-100.00,ENE,78,5.0,15.0,81,0.00,,,0.00,0.000000,,2013-10-28 03:22:00,
2013-10-27 21:30:00,31.0,29.0,-100.00,NE,56,6.0,17.0,93,0.00,,,0.00,0.000000,,2013-10-28 03:30:00,
2013-10-27 22:13:00,31.0,29.0,-100.00,NE,56,6.0,17.0,93,0.00,,,0.00,0.000000,,2013-10-28 04:13:00,
2013-10-27 22:23:00,31.0,29.0,-100.00,NE,56,6.0,17.0,93,0.00,,,0.00,0.000000,,2013-10-28 04:23:00,
2013-10-27 22:30:00,30.0,25.0,-100.00,NE,43,8.0,16.0,80,0.00,,,0.00,0.000000,,2013-10-28 04:30:00,
2013-10-27 22:53:00,30.0,25.0,-100.00,NE,43,8.0,16.0,80,0.00,,,0.00,0.000000,,2013-10-28 04:53:00,
2013-10-27 23:04:00,30.0,25.0,-100.00,NE,43,8.0,16.0,80,0.00,,,0.00,0.000000,,2013-10-28 05:04:00,
2013-10-27 23:13:00,30.0,25.0,-100.00,NE,43,8.0,16.0,80,0.00,,,0.00,0.000000,,2013-10-28 05:13:00,
2013-10-27 23:22:00,30.0,25.0,-100.00,NE,43,8.0,16.0,80,0.00,,,0.00,0.000000,,2013-10-28 05:22:00,
2013-10-27 23:30:00,28.0,20.0,-100.00,ENE,57,10.0,22.0,73,0.00,,,0.00,0.000000,,2013-10-28 05:30:00,
2013-10-27 23:53:00,28.0,20.0,-100.00,ENE,57,10.0,22.0,73,0.00,,,0.00,0.000000,,2013-10-28 05:53:00,